sensor_id;sensor_type;location;lat;lon;timestamp;P1;durP1;ratioP1;P2;durP2;ratioP2
41261;SDS011;29629;52.532;13.352;2022-09-23T00:01:00;21.92;;;11.98;;
41261;SDS011;29629;52.532;13.352;2022-09-23T00:03:31;27.65;;;13.00;;
41261;SDS011;29629;52.532;13.352;2022-09-23T00:05:59;22.08;;;12.23;;
41261;SDS011;29629;52.532;13.352;2022-09-23T00:08:27;21.73;;;11.90;;
41261;SDS011;29629;52.532;13.352;2022-09-23T00:10:55;24.17;;;11.93;;
41261;SDS011;29629;52.532;13.352;2022-09-23T00:13:23;25.02;;;12.90;;
41261;SDS011;29629;52.532;13.352;2022-09-23T00:15:50;29.55;;;13.23;;
41261;SDS011;29629;52.532;13.352;2022-09-23T00:18:17;20.02;;;11.82;;
41261;SDS011;29629;52.532;13.352;2022-09-23T00:20:44;30.75;;;13.65;;
41261;SDS011;29629;52.532;13.352;2022-09-23T00:23:14;19.67;;;10.73;;
41261;SDS011;29629;52.532;13.352;2022-09-23T00:25:41;26.13;;;11.90;;
41261;SDS011;29629;52.532;13.352;2022-09-23T00:28:08;23.48;;;11.85;;
41261;SDS011;29629;52.532;13.352;2022-09-23T00:30:36;20.25;;;10.90;;
41261;SDS011;29629;52.532;13.352;2022-09-23T00:33:05;22.45;;;10.65;;
41261;SDS011;29629;52.532;13.352;2022-09-23T00:35:32;25.83;;;11.50;;
41261;SDS011;29629;52.532;13.352;2022-09-23T00:37:59;22.23;;;11.02;;
41261;SDS011;29629;52.532;13.352;2022-09-23T00:40:26;28.13;;;12.07;;
41261;SDS011;29629;52.532;13.352;2022-09-23T00:42:52;22.92;;;10.73;;
41261;SDS011;29629;52.532;13.352;2022-09-23T00:45:19;20.13;;;11.15;;
41261;SDS011;29629;52.532;13.352;2022-09-23T00:47:49;27.80;;;11.02;;
41261;SDS011;29629;52.532;13.352;2022-09-23T00:50:20;16.52;;;10.73;;
41261;SDS011;29629;52.532;13.352;2022-09-23T00:52:52;12.98;;;9.60;;
41261;SDS011;29629;52.532;13.352;2022-09-23T00:55:21;15.95;;;9.18;;
41261;SDS011;29629;52.532;13.352;2022-09-23T00:57:52;23.02;;;10.50;;
41261;SDS011;29629;52.532;13.352;2022-09-23T01:00:21;21.67;;;11.05;;
41261;SDS011;29629;52.532;13.352;2022-09-23T01:02:50;19.70;;;11.05;;
41261;SDS011;29629;52.532;13.352;2022-09-23T01:05:17;19.98;;;9.77;;
41261;SDS011;29629;52.532;13.352;2022-09-23T01:07:44;21.60;;;10.60;;
41261;SDS011;29629;52.532;13.352;2022-09-23T01:10:11;24.25;;;11.50;;
41261;SDS011;29629;52.532;13.352;2022-09-23T01:12:45;20.33;;;10.82;;
41261;SDS011;29629;52.532;13.352;2022-09-23T01:15:31;21.55;;;10.63;;
41261;SDS011;29629;52.532;13.352;2022-09-23T01:18:13;14.60;;;9.40;;
41261;SDS011;29629;52.532;13.352;2022-09-23T01:21:06;23.73;;;9.98;;
41261;SDS011;29629;52.532;13.352;2022-09-23T01:23:56;25.27;;;11.18;;
41261;SDS011;29629;52.532;13.352;2022-09-23T01:27:03;20.08;;;10.60;;
41261;SDS011;29629;52.532;13.352;2022-09-23T01:32:39;10.98;;;9.23;;
41261;SDS011;29629;52.532;13.352;2022-09-23T01:35:19;18.25;;;9.98;;
41261;SDS011;29629;52.532;13.352;2022-09-23T01:37:55;20.08;;;10.57;;
41261;SDS011;29629;52.532;13.352;2022-09-23T01:40:29;24.90;;;11.13;;
41261;SDS011;29629;52.532;13.352;2022-09-23T01:43:05;23.10;;;10.52;;
41261;SDS011;29629;52.532;13.352;2022-09-23T01:45:36;20.35;;;9.88;;
41261;SDS011;29629;52.532;13.352;2022-09-23T01:48:10;19.75;;;10.32;;
41261;SDS011;29629;52.532;13.352;2022-09-23T01:50:45;18.00;;;9.70;;
41261;SDS011;29629;52.532;13.352;2022-09-23T01:53:23;18.88;;;10.18;;
41261;SDS011;29629;52.532;13.352;2022-09-23T01:55:55;16.40;;;9.13;;
41261;SDS011;29629;52.532;13.352;2022-09-23T01:58:28;19.00;;;9.60;;
41261;SDS011;29629;52.532;13.352;2022-09-23T02:01:00;20.85;;;10.90;;
41261;SDS011;29629;52.532;13.352;2022-09-23T02:03:31;22.48;;;10.95;;
41261;SDS011;29629;52.532;13.352;2022-09-23T02:06:02;17.67;;;10.15;;
41261;SDS011;29629;52.532;13.352;2022-09-23T02:08:34;16.67;;;9.63;;
41261;SDS011;29629;52.532;13.352;2022-09-23T02:11:07;19.33;;;9.82;;
41261;SDS011;29629;52.532;13.352;2022-09-23T02:13:39;20.45;;;10.73;;
41261;SDS011;29629;52.532;13.352;2022-09-23T02:16:12;11.25;;;9.10;;
41261;SDS011;29629;52.532;13.352;2022-09-23T02:18:48;27.95;;;11.73;;
41261;SDS011;29629;52.532;13.352;2022-09-23T02:21:18;21.92;;;9.85;;
41261;SDS011;29629;52.532;13.352;2022-09-23T02:23:50;24.00;;;11.60;;
41261;SDS011;29629;52.532;13.352;2022-09-23T02:26:21;12.35;;;9.13;;
41261;SDS011;29629;52.532;13.352;2022-09-23T02:28:54;19.70;;;10.02;;
41261;SDS011;29629;52.532;13.352;2022-09-23T02:31:27;19.20;;;10.10;;
41261;SDS011;29629;52.532;13.352;2022-09-23T02:34:00;24.02;;;11.90;;
41261;SDS011;29629;52.532;13.352;2022-09-23T02:36:38;13.73;;;8.90;;
41261;SDS011;29629;52.532;13.352;2022-09-23T02:39:11;20.90;;;10.33;;
41261;SDS011;29629;52.532;13.352;2022-09-23T02:41:42;18.65;;;10.45;;
41261;SDS011;29629;52.532;13.352;2022-09-23T02:44:17;18.33;;;9.40;;
41261;SDS011;29629;52.532;13.352;2022-09-23T02:46:45;18.35;;;10.30;;
41261;SDS011;29629;52.532;13.352;2022-09-23T02:49:17;18.75;;;10.25;;
41261;SDS011;29629;52.532;13.352;2022-09-23T02:51:47;24.08;;;11.00;;
41261;SDS011;29629;52.532;13.352;2022-09-23T02:54:15;43.72;;;14.25;;
41261;SDS011;29629;52.532;13.352;2022-09-23T02:56:44;25.08;;;10.15;;
41261;SDS011;29629;52.532;13.352;2022-09-23T02:59:13;28.52;;;11.18;;
41261;SDS011;29629;52.532;13.352;2022-09-23T03:01:44;25.00;;;10.82;;
41261;SDS011;29629;52.532;13.352;2022-09-23T03:04:26;20.80;;;10.15;;
41261;SDS011;29629;52.532;13.352;2022-09-23T03:07:01;26.17;;;11.27;;
41261;SDS011;29629;52.532;13.352;2022-09-23T03:09:32;41.85;;;13.65;;
41261;SDS011;29629;52.532;13.352;2022-09-23T03:12:03;11.10;;;8.25;;
41261;SDS011;29629;52.532;13.352;2022-09-23T03:14:39;22.67;;;10.73;;
41261;SDS011;29629;52.532;13.352;2022-09-23T03:17:09;21.10;;;10.07;;
41261;SDS011;29629;52.532;13.352;2022-09-23T03:19:41;19.30;;;10.05;;
41261;SDS011;29629;52.532;13.352;2022-09-23T03:22:13;20.33;;;9.82;;
41261;SDS011;29629;52.532;13.352;2022-09-23T03:24:44;35.55;;;13.05;;
41261;SDS011;29629;52.532;13.352;2022-09-23T03:27:13;21.63;;;10.55;;
41261;SDS011;29629;52.532;13.352;2022-09-23T03:29:44;18.48;;;9.02;;
41261;SDS011;29629;52.532;13.352;2022-09-23T03:32:15;23.02;;;9.13;;
41261;SDS011;29629;52.532;13.352;2022-09-23T03:34:45;31.52;;;12.82;;
41261;SDS011;29629;52.532;13.352;2022-09-23T03:37:15;16.58;;;9.13;;
41261;SDS011;29629;52.532;13.352;2022-09-23T03:39:47;15.60;;;9.15;;
41261;SDS011;29629;52.532;13.352;2022-09-23T03:42:18;16.90;;;9.35;;
41261;SDS011;29629;52.532;13.352;2022-09-23T03:44:51;24.67;;;9.13;;
41261;SDS011;29629;52.532;13.352;2022-09-23T03:47:20;19.63;;;8.85;;
41261;SDS011;29629;52.532;13.352;2022-09-23T03:49:50;18.35;;;8.77;;
41261;SDS011;29629;52.532;13.352;2022-09-23T03:52:18;18.83;;;9.52;;
41261;SDS011;29629;52.532;13.352;2022-09-23T03:54:46;13.45;;;8.52;;
41261;SDS011;29629;52.532;13.352;2022-09-23T03:57:14;21.60;;;9.82;;
41261;SDS011;29629;52.532;13.352;2022-09-23T03:59:41;16.30;;;8.80;;
41261;SDS011;29629;52.532;13.352;2022-09-23T04:02:08;20.23;;;9.73;;
41261;SDS011;29629;52.532;13.352;2022-09-23T04:04:36;20.48;;;9.68;;
41261;SDS011;29629;52.532;13.352;2022-09-23T04:07:06;21.67;;;9.55;;
41261;SDS011;29629;52.532;13.352;2022-09-23T04:09:33;23.17;;;10.82;;
41261;SDS011;29629;52.532;13.352;2022-09-23T04:12:00;24.13;;;10.70;;
41261;SDS011;29629;52.532;13.352;2022-09-23T04:14:28;48.15;;;15.63;;
41261;SDS011;29629;52.532;13.352;2022-09-23T04:16:55;18.63;;;9.55;;
41261;SDS011;29629;52.532;13.352;2022-09-23T04:19:22;18.75;;;9.82;;
41261;SDS011;29629;52.532;13.352;2022-09-23T04:21:49;18.95;;;9.38;;
41261;SDS011;29629;52.532;13.352;2022-09-23T04:24:17;19.30;;;9.35;;
41261;SDS011;29629;52.532;13.352;2022-09-23T04:26:44;22.17;;;10.02;;
41261;SDS011;29629;52.532;13.352;2022-09-23T04:29:11;24.63;;;10.40;;
41261;SDS011;29629;52.532;13.352;2022-09-23T04:31:38;15.52;;;8.18;;
41261;SDS011;29629;52.532;13.352;2022-09-23T04:34:05;23.73;;;10.68;;
41261;SDS011;29629;52.532;13.352;2022-09-23T04:36:32;24.25;;;10.50;;
41261;SDS011;29629;52.532;13.352;2022-09-23T04:38:59;15.43;;;8.73;;
41261;SDS011;29629;52.532;13.352;2022-09-23T04:41:28;19.05;;;9.38;;
41261;SDS011;29629;52.532;13.352;2022-09-23T04:43:54;19.30;;;8.95;;
41261;SDS011;29629;52.532;13.352;2022-09-23T04:46:22;14.88;;;8.45;;
41261;SDS011;29629;52.532;13.352;2022-09-23T04:48:49;17.80;;;8.73;;
41261;SDS011;29629;52.532;13.352;2022-09-23T04:51:17;13.55;;;8.38;;
41261;SDS011;29629;52.532;13.352;2022-09-23T04:53:47;19.70;;;9.30;;
41261;SDS011;29629;52.532;13.352;2022-09-23T04:56:16;28.75;;;12.07;;
41261;SDS011;29629;52.532;13.352;2022-09-23T04:58:46;25.20;;;10.65;;
41261;SDS011;29629;52.532;13.352;2022-09-23T05:01:14;22.48;;;11.10;;
41261;SDS011;29629;52.532;13.352;2022-09-23T05:03:42;17.63;;;9.88;;
41261;SDS011;29629;52.532;13.352;2022-09-23T05:06:11;21.90;;;10.95;;
41261;SDS011;29629;52.532;13.352;2022-09-23T05:08:39;17.88;;;9.63;;
41261;SDS011;29629;52.532;13.352;2022-09-23T05:11:07;20.80;;;10.25;;
41261;SDS011;29629;52.532;13.352;2022-09-23T05:13:34;17.40;;;9.20;;
41261;SDS011;29629;52.532;13.352;2022-09-23T05:16:02;23.38;;;10.18;;
41261;SDS011;29629;52.532;13.352;2022-09-23T05:18:32;22.73;;;10.40;;
41261;SDS011;29629;52.532;13.352;2022-09-23T05:20:59;20.20;;;8.95;;
41261;SDS011;29629;52.532;13.352;2022-09-23T05:23:27;14.00;;;8.88;;
41261;SDS011;29629;52.532;13.352;2022-09-23T05:25:55;20.80;;;10.05;;
41261;SDS011;29629;52.532;13.352;2022-09-23T05:28:23;20.90;;;9.60;;
41261;SDS011;29629;52.532;13.352;2022-09-23T05:30:50;20.75;;;9.48;;
41261;SDS011;29629;52.532;13.352;2022-09-23T05:33:18;26.95;;;12.18;;
41261;SDS011;29629;52.532;13.352;2022-09-23T05:35:45;24.13;;;10.48;;
41261;SDS011;29629;52.532;13.352;2022-09-23T05:38:13;23.10;;;10.77;;
41261;SDS011;29629;52.532;13.352;2022-09-23T05:40:40;19.92;;;9.48;;
41261;SDS011;29629;52.532;13.352;2022-09-23T05:43:07;26.88;;;11.70;;
41261;SDS011;29629;52.532;13.352;2022-09-23T05:45:34;18.38;;;9.43;;
41261;SDS011;29629;52.532;13.352;2022-09-23T05:48:01;21.48;;;10.75;;
41261;SDS011;29629;52.532;13.352;2022-09-23T05:50:30;22.35;;;10.05;;
41261;SDS011;29629;52.532;13.352;2022-09-23T05:52:56;23.38;;;10.00;;
41261;SDS011;29629;52.532;13.352;2022-09-23T05:55:23;27.58;;;10.63;;
41261;SDS011;29629;52.532;13.352;2022-09-23T05:57:51;26.80;;;11.40;;
41261;SDS011;29629;52.532;13.352;2022-09-23T06:00:18;23.10;;;10.77;;
41261;SDS011;29629;52.532;13.352;2022-09-23T06:02:45;21.80;;;10.38;;
41261;SDS011;29629;52.532;13.352;2022-09-23T06:05:13;23.27;;;10.38;;
41261;SDS011;29629;52.532;13.352;2022-09-23T06:07:41;20.15;;;10.05;;
41261;SDS011;29629;52.532;13.352;2022-09-23T06:10:08;24.73;;;11.27;;
41261;SDS011;29629;52.532;13.352;2022-09-23T06:12:35;20.02;;;10.52;;
41261;SDS011;29629;52.532;13.352;2022-09-23T06:15:02;22.23;;;11.60;;
41261;SDS011;29629;52.532;13.352;2022-09-23T06:17:29;20.75;;;10.57;;
41261;SDS011;29629;52.532;13.352;2022-09-23T06:19:56;18.02;;;10.15;;
41261;SDS011;29629;52.532;13.352;2022-09-23T06:22:23;15.90;;;10.30;;
41261;SDS011;29629;52.532;13.352;2022-09-23T06:24:51;18.52;;;11.43;;
41261;SDS011;29629;52.532;13.352;2022-09-23T06:27:18;23.17;;;11.95;;
41261;SDS011;29629;52.532;13.352;2022-09-23T06:29:45;27.75;;;12.50;;
41261;SDS011;29629;52.532;13.352;2022-09-23T06:32:14;22.67;;;11.48;;
41261;SDS011;29629;52.532;13.352;2022-09-23T06:34:41;41.55;;;15.15;;
41261;SDS011;29629;52.532;13.352;2022-09-23T06:37:09;30.83;;;12.32;;
41261;SDS011;29629;52.532;13.352;2022-09-23T06:39:36;24.90;;;11.82;;
41261;SDS011;29629;52.532;13.352;2022-09-23T06:42:05;24.60;;;12.05;;
41261;SDS011;29629;52.532;13.352;2022-09-23T06:44:32;48.83;;;17.42;;
41261;SDS011;29629;52.532;13.352;2022-09-23T06:46:59;22.15;;;11.95;;
41261;SDS011;29629;52.532;13.352;2022-09-23T06:49:26;27.48;;;12.45;;
41261;SDS011;29629;52.532;13.352;2022-09-23T06:51:53;18.88;;;10.68;;
41261;SDS011;29629;52.532;13.352;2022-09-23T06:54:20;19.85;;;11.50;;
41261;SDS011;29629;52.532;13.352;2022-09-23T06:56:47;21.65;;;11.30;;
41261;SDS011;29629;52.532;13.352;2022-09-23T06:59:16;36.60;;;19.30;;
41261;SDS011;29629;52.532;13.352;2022-09-23T07:01:42;26.83;;;14.88;;
41261;SDS011;29629;52.532;13.352;2022-09-23T07:04:11;25.95;;;15.57;;
41261;SDS011;29629;52.532;13.352;2022-09-23T07:06:38;22.23;;;14.75;;
41261;SDS011;29629;52.532;13.352;2022-09-23T07:09:06;48.90;;;24.45;;
41261;SDS011;29629;52.532;13.352;2022-09-23T07:11:35;37.72;;;23.45;;
41261;SDS011;29629;52.532;13.352;2022-09-23T07:14:02;32.38;;;19.55;;
41261;SDS011;29629;52.532;13.352;2022-09-23T07:16:30;21.55;;;15.68;;
41261;SDS011;29629;52.532;13.352;2022-09-23T07:18:57;21.83;;;14.73;;
41261;SDS011;29629;52.532;13.352;2022-09-23T07:21:24;31.60;;;18.95;;
41261;SDS011;29629;52.532;13.352;2022-09-23T07:23:51;22.50;;;15.32;;
41261;SDS011;29629;52.532;13.352;2022-09-23T07:26:19;29.52;;;20.63;;
41261;SDS011;29629;52.532;13.352;2022-09-23T07:28:47;20.25;;;17.83;;
41261;SDS011;29629;52.532;13.352;2022-09-23T07:31:18;30.77;;;20.83;;
41261;SDS011;29629;52.532;13.352;2022-09-23T07:33:47;20.00;;;16.95;;
41261;SDS011;29629;52.532;13.352;2022-09-23T07:36:15;18.13;;;15.15;;
41261;SDS011;29629;52.532;13.352;2022-09-23T07:38:43;20.08;;;16.02;;
41261;SDS011;29629;52.532;13.352;2022-09-23T07:41:12;30.40;;;17.67;;
41261;SDS011;29629;52.532;13.352;2022-09-23T07:43:40;21.88;;;15.55;;
41261;SDS011;29629;52.532;13.352;2022-09-23T07:46:09;24.40;;;17.33;;
41261;SDS011;29629;52.532;13.352;2022-09-23T07:48:38;16.00;;;14.60;;
41261;SDS011;29629;52.532;13.352;2022-09-23T07:51:07;26.52;;;17.30;;
41261;SDS011;29629;52.532;13.352;2022-09-23T07:53:35;19.42;;;17.33;;
41261;SDS011;29629;52.532;13.352;2022-09-23T07:56:03;25.08;;;18.60;;
41261;SDS011;29629;52.532;13.352;2022-09-23T07:58:31;21.85;;;17.55;;
41261;SDS011;29629;52.532;13.352;2022-09-23T08:01:04;24.13;;;19.05;;
41261;SDS011;29629;52.532;13.352;2022-09-23T08:03:33;28.05;;;18.95;;
41261;SDS011;29629;52.532;13.352;2022-09-23T08:06:04;26.20;;;20.13;;
41261;SDS011;29629;52.532;13.352;2022-09-23T08:08:33;20.95;;;18.25;;
41261;SDS011;29629;52.532;13.352;2022-09-23T08:11:04;23.60;;;20.48;;
41261;SDS011;29629;52.532;13.352;2022-09-23T08:13:31;29.88;;;21.00;;
41261;SDS011;29629;52.532;13.352;2022-09-23T08:15:59;27.00;;;21.73;;
41261;SDS011;29629;52.532;13.352;2022-09-23T08:18:26;24.17;;;21.50;;
41261;SDS011;29629;52.532;13.352;2022-09-23T08:20:53;21.77;;;19.50;;
41261;SDS011;29629;52.532;13.352;2022-09-23T08:23:20;28.63;;;21.20;;
41261;SDS011;29629;52.532;13.352;2022-09-23T08:25:54;23.52;;;19.35;;
41261;SDS011;29629;52.532;13.352;2022-09-23T08:28:22;28.20;;;20.58;;
41261;SDS011;29629;52.532;13.352;2022-09-23T08:30:50;27.23;;;16.55;;
41261;SDS011;29629;52.532;13.352;2022-09-23T08:33:17;32.60;;;19.77;;
41261;SDS011;29629;52.532;13.352;2022-09-23T08:35:43;17.02;;;15.23;;
41261;SDS011;29629;52.532;13.352;2022-09-23T08:38:10;24.38;;;14.13;;
41261;SDS011;29629;52.532;13.352;2022-09-23T08:40:37;75.88;;;21.02;;
41261;SDS011;29629;52.532;13.352;2022-09-23T08:43:10;20.15;;;8.20;;
41261;SDS011;29629;52.532;13.352;2022-09-23T08:45:43;21.88;;;6.57;;
41261;SDS011;29629;52.532;13.352;2022-09-23T08:48:11;24.13;;;5.30;;
41261;SDS011;29629;52.532;13.352;2022-09-23T08:50:41;15.13;;;3.83;;
41261;SDS011;29629;52.532;13.352;2022-09-23T08:53:12;22.38;;;4.47;;
41261;SDS011;29629;52.532;13.352;2022-09-23T08:55:46;15.90;;;3.93;;
41261;SDS011;29629;52.532;13.352;2022-09-23T08:58:25;20.10;;;4.78;;
41261;SDS011;29629;52.532;13.352;2022-09-23T09:01:06;17.70;;;4.88;;
41261;SDS011;29629;52.532;13.352;2022-09-23T09:03:42;19.58;;;5.57;;
41261;SDS011;29629;52.532;13.352;2022-09-23T09:06:14;24.33;;;6.25;;
41261;SDS011;29629;52.532;13.352;2022-09-23T09:08:44;17.23;;;5.47;;
41261;SDS011;29629;52.532;13.352;2022-09-23T09:11:17;35.30;;;8.45;;
41261;SDS011;29629;52.532;13.352;2022-09-23T09:13:50;18.73;;;7.00;;
41261;SDS011;29629;52.532;13.352;2022-09-23T09:16:31;17.25;;;6.22;;
41261;SDS011;29629;52.532;13.352;2022-09-23T09:19:11;24.55;;;7.78;;
41261;SDS011;29629;52.532;13.352;2022-09-23T09:21:42;7.07;;;6.38;;
41261;SDS011;29629;52.532;13.352;2022-09-23T09:24:15;14.48;;;7.38;;
41261;SDS011;29629;52.532;13.352;2022-09-23T09:26:44;15.70;;;7.38;;
41261;SDS011;29629;52.532;13.352;2022-09-23T09:29:13;25.23;;;8.77;;
41261;SDS011;29629;52.532;13.352;2022-09-23T09:31:43;21.30;;;8.25;;
41261;SDS011;29629;52.532;13.352;2022-09-23T09:34:13;22.50;;;8.68;;
41261;SDS011;29629;52.532;13.352;2022-09-23T09:36:48;21.40;;;8.50;;
41261;SDS011;29629;52.532;13.352;2022-09-23T09:39:25;22.33;;;8.35;;
41261;SDS011;29629;52.532;13.352;2022-09-23T09:41:52;20.83;;;8.27;;
41261;SDS011;29629;52.532;13.352;2022-09-23T09:44:24;19.83;;;7.78;;
41261;SDS011;29629;52.532;13.352;2022-09-23T09:47:01;22.88;;;7.55;;
41261;SDS011;29629;52.532;13.352;2022-09-23T09:49:40;19.45;;;7.38;;
41261;SDS011;29629;52.532;13.352;2022-09-23T09:52:12;28.13;;;8.68;;
41261;SDS011;29629;52.532;13.352;2022-09-23T09:54:46;15.73;;;7.63;;
41261;SDS011;29629;52.532;13.352;2022-09-23T09:57:16;15.25;;;7.85;;
41261;SDS011;29629;52.532;13.352;2022-09-23T09:59:50;15.48;;;8.15;;
41261;SDS011;29629;52.532;13.352;2022-09-23T10:02:21;15.05;;;7.78;;
41261;SDS011;29629;52.532;13.352;2022-09-23T10:04:52;16.83;;;8.98;;
41261;SDS011;29629;52.532;13.352;2022-09-23T10:07:23;35.22;;;13.88;;
41261;SDS011;29629;52.532;13.352;2022-09-23T10:09:52;11.25;;;7.10;;
41261;SDS011;29629;52.532;13.352;2022-09-23T10:12:19;12.93;;;6.80;;
41261;SDS011;29629;52.532;13.352;2022-09-23T10:14:47;13.10;;;6.40;;
41261;SDS011;29629;52.532;13.352;2022-09-23T10:17:18;18.42;;;7.32;;
41261;SDS011;29629;52.532;13.352;2022-09-23T10:19:46;16.05;;;6.35;;
41261;SDS011;29629;52.532;13.352;2022-09-23T10:22:17;15.15;;;6.00;;
41261;SDS011;29629;52.532;13.352;2022-09-23T10:24:48;16.17;;;6.10;;
41261;SDS011;29629;52.532;13.352;2022-09-23T10:27:16;22.95;;;7.35;;
41261;SDS011;29629;52.532;13.352;2022-09-23T10:29:57;17.40;;;6.38;;
41261;SDS011;29629;52.532;13.352;2022-09-23T10:32:27;18.73;;;6.63;;
41261;SDS011;29629;52.532;13.352;2022-09-23T10:34:57;15.50;;;6.15;;
41261;SDS011;29629;52.532;13.352;2022-09-23T10:37:32;19.25;;;6.47;;
41261;SDS011;29629;52.532;13.352;2022-09-23T10:40:11;9.43;;;5.10;;
41261;SDS011;29629;52.532;13.352;2022-09-23T10:43:12;16.40;;;6.00;;
41261;SDS011;29629;52.532;13.352;2022-09-23T10:46:04;13.15;;;5.95;;
41261;SDS011;29629;52.532;13.352;2022-09-23T10:48:54;15.40;;;6.32;;
41261;SDS011;29629;52.532;13.352;2022-09-23T10:51:35;13.38;;;6.53;;
41261;SDS011;29629;52.532;13.352;2022-09-23T10:54:12;16.63;;;6.85;;
41261;SDS011;29629;52.532;13.352;2022-09-23T10:56:48;6.05;;;5.53;;
41261;SDS011;29629;52.532;13.352;2022-09-23T10:59:24;18.92;;;6.55;;
41261;SDS011;29629;52.532;13.352;2022-09-23T11:07:52;22.65;;;6.80;;
41261;SDS011;29629;52.532;13.352;2022-09-23T11:10:35;16.95;;;6.38;;
41261;SDS011;29629;52.532;13.352;2022-09-23T11:13:15;17.60;;;6.35;;
41261;SDS011;29629;52.532;13.352;2022-09-23T11:15:52;5.63;;;4.38;;
41261;SDS011;29629;52.532;13.352;2022-09-23T11:18:41;13.40;;;5.47;;
41261;SDS011;29629;52.532;13.352;2022-09-23T11:21:25;27.98;;;7.78;;
41261;SDS011;29629;52.532;13.352;2022-09-23T11:26:56;12.57;;;5.45;;
41261;SDS011;29629;52.532;13.352;2022-09-23T11:32:40;12.77;;;5.25;;
41261;SDS011;29629;52.532;13.352;2022-09-23T11:35:28;26.38;;;7.07;;
41261;SDS011;29629;52.532;13.352;2022-09-23T11:38:03;15.40;;;5.55;;
41261;SDS011;29629;52.532;13.352;2022-09-23T11:40:33;16.77;;;6.60;;
41261;SDS011;29629;52.532;13.352;2022-09-23T11:43:02;18.90;;;6.85;;
41261;SDS011;29629;52.532;13.352;2022-09-23T11:45:40;18.83;;;6.80;;
41261;SDS011;29629;52.532;13.352;2022-09-23T11:48:12;16.30;;;6.68;;
41261;SDS011;29629;52.532;13.352;2022-09-23T11:50:43;36.95;;;9.77;;
41261;SDS011;29629;52.532;13.352;2022-09-23T11:53:18;31.50;;;9.30;;
41261;SDS011;29629;52.532;13.352;2022-09-23T11:55:51;16.85;;;7.97;;
41261;SDS011;29629;52.532;13.352;2022-09-23T11:58:21;17.48;;;8.23;;
41261;SDS011;29629;52.532;13.352;2022-09-23T12:00:53;10.73;;;6.28;;
41261;SDS011;29629;52.532;13.352;2022-09-23T12:03:30;20.13;;;6.20;;
41261;SDS011;29629;52.532;13.352;2022-09-23T12:06:05;14.35;;;4.78;;
41261;SDS011;29629;52.532;13.352;2022-09-23T12:08:38;14.15;;;5.80;;
41261;SDS011;29629;52.532;13.352;2022-09-23T12:11:06;13.23;;;6.47;;
41261;SDS011;29629;52.532;13.352;2022-09-23T12:13:47;17.48;;;8.27;;
41261;SDS011;29629;52.532;13.352;2022-09-23T12:19:19;20.50;;;10.10;;
41261;SDS011;29629;52.532;13.352;2022-09-23T12:21:59;18.73;;;10.63;;
41261;SDS011;29629;52.532;13.352;2022-09-23T12:24:46;43.25;;;14.38;;
41261;SDS011;29629;52.532;13.352;2022-09-23T12:27:22;27.50;;;12.90;;
41261;SDS011;29629;52.532;13.352;2022-09-23T12:29:57;22.17;;;13.88;;
41261;SDS011;29629;52.532;13.352;2022-09-23T12:32:27;21.08;;;8.88;;
41261;SDS011;29629;52.532;13.352;2022-09-23T12:34:54;16.90;;;7.35;;
41261;SDS011;29629;52.532;13.352;2022-09-23T12:37:23;21.13;;;7.47;;
41261;SDS011;29629;52.532;13.352;2022-09-23T12:39:53;14.98;;;5.68;;
41261;SDS011;29629;52.532;13.352;2022-09-23T12:42:25;13.65;;;6.15;;
41261;SDS011;29629;52.532;13.352;2022-09-23T12:44:52;19.80;;;8.13;;
41261;SDS011;29629;52.532;13.352;2022-09-23T12:50:47;18.52;;;9.70;;
41261;SDS011;29629;52.532;13.352;2022-09-23T12:56:56;11.48;;;9.68;;
41261;SDS011;29629;52.532;13.352;2022-09-23T12:59:26;22.73;;;11.25;;
41261;SDS011;29629;52.532;13.352;2022-09-23T13:01:55;17.52;;;10.75;;
41261;SDS011;29629;52.532;13.352;2022-09-23T13:07:39;17.40;;;10.18;;
41261;SDS011;29629;52.532;13.352;2022-09-23T13:10:11;11.27;;;9.05;;
41261;SDS011;29629;52.532;13.352;2022-09-23T13:12:41;13.75;;;9.32;;
41261;SDS011;29629;52.532;13.352;2022-09-23T13:15:14;14.30;;;8.25;;
41261;SDS011;29629;52.532;13.352;2022-09-23T13:17:49;13.15;;;8.43;;
41261;SDS011;29629;52.532;13.352;2022-09-23T13:20:32;13.98;;;8.38;;
41261;SDS011;29629;52.532;13.352;2022-09-23T13:23:03;11.98;;;8.10;;
41261;SDS011;29629;52.532;13.352;2022-09-23T13:25:41;10.80;;;7.35;;
41261;SDS011;29629;52.532;13.352;2022-09-23T13:28:18;11.93;;;6.70;;
41261;SDS011;29629;52.532;13.352;2022-09-23T13:30:51;20.33;;;7.70;;
41261;SDS011;29629;52.532;13.352;2022-09-23T13:33:22;11.82;;;7.22;;
41261;SDS011;29629;52.532;13.352;2022-09-23T13:35:54;11.23;;;7.97;;
41261;SDS011;29629;52.532;13.352;2022-09-23T13:38:26;8.73;;;7.80;;
41261;SDS011;29629;52.532;13.352;2022-09-23T13:40:56;9.52;;;8.45;;
41261;SDS011;29629;52.532;13.352;2022-09-23T13:43:26;13.77;;;9.07;;
41261;SDS011;29629;52.532;13.352;2022-09-23T13:45:57;8.82;;;8.10;;
41261;SDS011;29629;52.532;13.352;2022-09-23T13:48:27;7.95;;;7.50;;
41261;SDS011;29629;52.532;13.352;2022-09-23T13:50:54;10.20;;;8.07;;
41261;SDS011;29629;52.532;13.352;2022-09-23T13:53:22;13.07;;;7.82;;
41261;SDS011;29629;52.532;13.352;2022-09-23T13:56:01;7.50;;;6.15;;
41261;SDS011;29629;52.532;13.352;2022-09-23T13:58:30;23.25;;;7.05;;
41261;SDS011;29629;52.532;13.352;2022-09-23T14:00:58;17.08;;;6.38;;
41261;SDS011;29629;52.532;13.352;2022-09-23T14:03:27;19.98;;;6.18;;
41261;SDS011;29629;52.532;13.352;2022-09-23T14:05:56;34.20;;;7.95;;
41261;SDS011;29629;52.532;13.352;2022-09-23T14:08:25;17.77;;;4.90;;
41261;SDS011;29629;52.532;13.352;2022-09-23T14:10:53;15.02;;;5.85;;
41261;SDS011;29629;52.532;13.352;2022-09-23T14:13:21;13.50;;;4.32;;
41261;SDS011;29629;52.532;13.352;2022-09-23T14:15:51;12.38;;;4.00;;
41261;SDS011;29629;52.532;13.352;2022-09-23T14:18:22;16.85;;;4.22;;
41261;SDS011;29629;52.532;13.352;2022-09-23T14:20:55;20.05;;;4.03;;
41261;SDS011;29629;52.532;13.352;2022-09-23T14:23:21;15.75;;;5.20;;
41261;SDS011;29629;52.532;13.352;2022-09-23T14:25:49;8.40;;;3.03;;
41261;SDS011;29629;52.532;13.352;2022-09-23T14:28:18;7.75;;;2.60;;
41261;SDS011;29629;52.532;13.352;2022-09-23T14:30:48;8.15;;;2.55;;
41261;SDS011;29629;52.532;13.352;2022-09-23T14:33:17;4.40;;;2.03;;
41261;SDS011;29629;52.532;13.352;2022-09-23T14:35:48;10.10;;;2.92;;
41261;SDS011;29629;52.532;13.352;2022-09-23T14:38:23;5.47;;;3.63;;
41261;SDS011;29629;52.532;13.352;2022-09-23T14:41:12;14.23;;;5.15;;
41261;SDS011;29629;52.532;13.352;2022-09-23T14:43:46;7.75;;;3.30;;
41261;SDS011;29629;52.532;13.352;2022-09-23T14:46:16;12.27;;;3.92;;
41261;SDS011;29629;52.532;13.352;2022-09-23T14:48:50;22.77;;;13.27;;
41261;SDS011;29629;52.532;13.352;2022-09-23T14:51:20;31.55;;;24.52;;
41261;SDS011;29629;52.532;13.352;2022-09-23T14:53:55;11.82;;;9.90;;
41261;SDS011;29629;52.532;13.352;2022-09-23T14:57:16;11.80;;;7.68;;
41261;SDS011;29629;52.532;13.352;2022-09-23T15:02:25;26.48;;;25.25;;
41261;SDS011;29629;52.532;13.352;2022-09-23T15:05:07;25.85;;;24.48;;
41261;SDS011;29629;52.532;13.352;2022-09-23T15:07:40;22.75;;;20.55;;
41261;SDS011;29629;52.532;13.352;2022-09-23T15:10:13;18.95;;;17.48;;